sensor_id;sensor_type;location;lat;lon;timestamp;pressure;altitude;pressure_sealevel;temperature;humidity
52441;BME280;39611;46.062;8.950;2023-03-21T00:00:22;96754.97;;;10.39;87.02
52441;BME280;39611;46.062;8.950;2023-03-21T00:02:49;96752.56;;;10.32;89.23
52441;BME280;39611;46.062;8.950;2023-03-21T00:05:16;96749.16;;;10.32;89.27
52441;BME280;39611;46.062;8.950;2023-03-21T00:07:42;96745.69;;;10.26;90.44
52441;BME280;39611;46.062;8.950;2023-03-21T00:10:09;96745.72;;;10.31;89.66
52441;BME280;39611;46.062;8.950;2023-03-21T00:12:43;96729.84;;;10.31;90.46
52441;BME280;39611;46.062;8.950;2023-03-21T00:15:11;96735.91;;;10.32;89.97
52441;BME280;39611;46.062;8.950;2023-03-21T00:17:38;96729.84;;;10.31;90.46
52441;BME280;39611;46.062;8.950;2023-03-21T00:20:06;96729.59;;;10.27;91.32
52441;BME280;39611;46.062;8.950;2023-03-21T00:22:40;96725.88;;;10.28;89.88
52441;BME280;39611;46.062;8.950;2023-03-21T00:25:08;96724.03;;;10.39;88.47
52441;BME280;39611;46.062;8.950;2023-03-21T00:27:36;96724.31;;;10.33;88.72
52441;BME280;39611;46.062;8.950;2023-03-21T00:30:22;96722.69;;;10.37;86.87
52441;BME280;39611;46.062;8.950;2023-03-21T00:32:49;96717.94;;;10.44;86.34
52441;BME280;39611;46.062;8.950;2023-03-21T00:35:22;96714.22;;;10.40;87.15
52441;BME280;39611;46.062;8.950;2023-03-21T00:38:09;96711.34;;;10.41;87.11
52441;BME280;39611;46.062;8.950;2023-03-21T00:40:35;96708.91;;;10.24;88.36
52441;BME280;39611;46.062;8.950;2023-03-21T00:43:12;96699.44;;;10.34;88.04
52441;BME280;39611;46.062;8.950;2023-03-21T00:45:43;96706.59;;;10.33;86.35
52441;BME280;39611;46.062;8.950;2023-03-21T00:48:11;96695.72;;;10.30;86.04
52441;BME280;39611;46.062;8.950;2023-03-21T00:50:38;96701.56;;;10.32;86.34
52441;BME280;39611;46.062;8.950;2023-03-21T00:53:05;96693.63;;;10.32;85.32
52441;BME280;39611;46.062;8.950;2023-03-21T00:55:32;96687.28;;;10.33;85.31
52441;BME280;39611;46.062;8.950;2023-03-21T00:57:58;96685.16;;;10.30;86.65
52441;BME280;39611;46.062;8.950;2023-03-21T01:00:28;96686.97;;;10.19;87.25
52441;BME280;39611;46.062;8.950;2023-03-21T01:02:55;96677.22;;;10.04;87.09
52441;BME280;39611;46.062;8.950;2023-03-21T01:05:38;96681.44;;;10.10;87.45
52441;BME280;39611;46.062;8.950;2023-03-21T01:08:25;96682.22;;;10.21;86.26
52441;BME280;39611;46.062;8.950;2023-03-21T01:11:06;96683.56;;;10.28;85.16
52441;BME280;39611;46.062;8.950;2023-03-21T01:13:33;96681.69;;;10.19;86.12
52441;BME280;39611;46.062;8.950;2023-03-21T01:16:05;96678.78;;;10.05;86.90
52441;BME280;39611;46.062;8.950;2023-03-21T01:18:33;96675.09;;;10.01;87.06
52441;BME280;39611;46.062;8.950;2023-03-21T01:21:01;96670.34;;;10.13;86.17
52441;BME280;39611;46.062;8.950;2023-03-21T01:23:28;96671.41;;;10.12;86.14
52441;BME280;39611;46.062;8.950;2023-03-21T01:25:55;96669.53;;;10.02;86.75
52441;BME280;39611;46.062;8.950;2023-03-21T01:28:25;96675.63;;;10.03;86.78
52441;BME280;39611;46.062;8.950;2023-03-21T01:30:52;96670.59;;;9.96;87.35
52441;BME280;39611;46.062;8.950;2023-03-21T01:33:20;96657.13;;;9.98;87.15
52441;BME280;39611;46.062;8.950;2023-03-21T01:35:47;96663.47;;;10.02;87.10
52441;BME280;39611;46.062;8.950;2023-03-21T01:38:23;96666.13;;;10.02;87.16
52441;BME280;39611;46.062;8.950;2023-03-21T01:40:50;96660.28;;;9.90;87.90
52441;BME280;39611;46.062;8.950;2023-03-21T01:43:32;96656.31;;;9.87;87.94
52441;BME280;39611;46.062;8.950;2023-03-21T01:48:38;96659.75;;;9.93;84.96
52441;BME280;39611;46.062;8.950;2023-03-21T01:51:09;96658.44;;;9.90;84.43
52441;BME280;39611;46.062;8.950;2023-03-21T01:53:38;96656.06;;;9.78;86.54
52441;BME280;39611;46.062;8.950;2023-03-21T01:56:11;96649.16;;;9.67;87.23
52441;BME280;39611;46.062;8.950;2023-03-21T01:58:40;96643.88;;;9.62;87.18
52441;BME280;39611;46.062;8.950;2023-03-21T02:01:08;96646.25;;;9.58;87.24
52441;BME280;39611;46.062;8.950;2023-03-21T02:03:35;96635.66;;;9.48;88.07
52441;BME280;39611;46.062;8.950;2023-03-21T02:06:08;96645.97;;;9.50;87.25
52441;BME280;39611;46.062;8.950;2023-03-21T02:08:36;96644.69;;;9.62;86.38
52441;BME280;39611;46.062;8.950;2023-03-21T02:11:06;96645.72;;;9.67;86.45
52441;BME280;39611;46.062;8.950;2023-03-21T02:13:33;96642.84;;;9.68;86.45
52441;BME280;39611;46.062;8.950;2023-03-21T02:25:03;96626.47;;;9.66;86.38
52441;BME280;39611;46.062;8.950;2023-03-21T02:27:54;96632.28;;;9.68;85.92
52441;BME280;39611;46.062;8.950;2023-03-21T02:30:48;96631.19;;;9.64;85.59
52441;BME280;39611;46.062;8.950;2023-03-21T02:33:29;96624.03;;;9.49;86.02
52441;BME280;39611;46.062;8.950;2023-03-21T02:36:11;96631.19;;;9.54;86.12
52441;BME280;39611;46.062;8.950;2023-03-21T02:38:54;96630.91;;;9.35;87.08
52441;BME280;39611;46.062;8.950;2023-03-21T02:44:19;96614.28;;;9.50;85.23
52441;BME280;39611;46.062;8.950;2023-03-21T02:46:56;96615.88;;;9.56;84.74
52441;BME280;39611;46.062;8.950;2023-03-21T02:49:54;96620.63;;;9.59;85.04
52441;BME280;39611;46.062;8.950;2023-03-21T02:52:26;96615.34;;;9.59;84.72
52441;BME280;39611;46.062;8.950;2023-03-21T02:55:09;96602.13;;;9.49;85.78
52441;BME280;39611;46.062;8.950;2023-03-21T02:57:41;96610.84;;;9.34;87.26
52441;BME280;39611;46.062;8.950;2023-03-21T03:00:12;96608.19;;;9.29;87.06
52441;BME280;39611;46.062;8.950;2023-03-21T03:02:43;96610.31;;;9.42;85.60
52441;BME280;39611;46.062;8.950;2023-03-21T03:05:19;96598.44;;;9.50;85.23
52441;BME280;39611;46.062;8.950;2023-03-21T03:11:27;96601.06;;;9.34;87.45
52441;BME280;39611;46.062;8.950;2023-03-21T03:17:17;96596.84;;;9.38;86.74
52441;BME280;39611;46.062;8.950;2023-03-21T03:19:59;96594.69;;;9.25;87.29
52441;BME280;39611;46.062;8.950;2023-03-21T03:26:01;96594.44;;;9.16;87.89
52441;BME280;39611;46.062;8.950;2023-03-21T03:28:34;96592.56;;;9.17;88.19
52441;BME280;39611;46.062;8.950;2023-03-21T03:31:03;96590.44;;;9.09;88.09
52441;BME280;39611;46.062;8.950;2023-03-21T03:33:37;96582.53;;;9.14;87.16
52441;BME280;39611;46.062;8.950;2023-03-21T03:36:09;96577.81;;;9.16;86.74
52441;BME280;39611;46.062;8.950;2023-03-21T03:38:54;96583.09;;;9.26;85.77
52441;BME280;39611;46.062;8.950;2023-03-21T03:41:25;96585.47;;;9.28;84.83
52441;BME280;39611;46.062;8.950;2023-03-21T03:43:55;96584.94;;;9.26;84.33
52441;BME280;39611;46.062;8.950;2023-03-21T03:46:29;96584.44;;;9.34;83.78
52441;BME280;39611;46.062;8.950;2023-03-21T03:49:01;96582.84;;;9.33;83.22
52441;BME280;39611;46.062;8.950;2023-03-21T03:51:41;96584.94;;;9.41;83.40
52441;BME280;39611;46.062;8.950;2023-03-21T03:54:12;96580.72;;;9.25;83.07
52441;BME280;39611;46.062;8.950;2023-03-21T03:56:39;96587.84;;;9.19;83.59
52441;BME280;39611;46.062;8.950;2023-03-21T03:59:07;96582.03;;;9.17;83.49
52441;BME280;39611;46.062;8.950;2023-03-21T04:01:34;96589.88;;;9.02;84.11
52441;BME280;39611;46.062;8.950;2023-03-21T04:04:00;96590.69;;;9.02;83.96
52441;BME280;39611;46.062;8.950;2023-03-21T04:06:38;96590.91;;;8.90;84.23
52441;BME280;39611;46.062;8.950;2023-03-21T04:09:05;96590.63;;;8.87;83.87
52441;BME280;39611;46.062;8.950;2023-03-21T04:11:45;96593.84;;;8.99;83.43
52441;BME280;39611;46.062;8.950;2023-03-21T04:14:12;96596.44;;;8.89;83.84
52441;BME280;39611;46.062;8.950;2023-03-21T04:16:38;96593.56;;;8.90;84.05
52441;BME280;39611;46.062;8.950;2023-03-21T04:19:05;96597.66;;;8.61;85.68
52441;BME280;39611;46.062;8.950;2023-03-21T04:21:31;96604.06;;;8.75;84.82
52441;BME280;39611;46.062;8.950;2023-03-21T04:23:58;96600.59;;;8.64;85.27
52441;BME280;39611;46.062;8.950;2023-03-21T04:26:25;96590.88;;;8.80;84.49
52441;BME280;39611;46.062;8.950;2023-03-21T04:28:58;96595.13;;;8.86;84.52
52441;BME280;39611;46.062;8.950;2023-03-21T04:31:26;96591.66;;;8.81;84.92
52441;BME280;39611;46.062;8.950;2023-03-21T04:33:57;96594.50;;;8.59;86.21
52441;BME280;39611;46.062;8.950;2023-03-21T04:36:25;96593.69;;;8.58;85.74
52441;BME280;39611;46.062;8.950;2023-03-21T04:39:05;96591.06;;;8.63;85.77
52441;BME280;39611;46.062;8.950;2023-03-21T04:41:44;96589.22;;;8.59;85.89
52441;BME280;39611;46.062;8.950;2023-03-21T04:44:13;96586.00;;;8.46;86.10
52441;BME280;39611;46.062;8.950;2023-03-21T04:46:40;96595.44;;;8.42;86.27
52441;BME280;39611;46.062;8.950;2023-03-21T04:49:07;96583.38;;;8.51;86.14
52441;BME280;39611;46.062;8.950;2023-03-21T04:51:34;96585.47;;;8.49;86.51
52441;BME280;39611;46.062;8.950;2023-03-21T04:54:01;96580.56;;;8.26;86.96
52441;BME280;39611;46.062;8.950;2023-03-21T04:56:28;96578.59;;;8.43;85.93
52441;BME280;39611;46.062;8.950;2023-03-21T04:59:01;96580.47;;;8.53;85.85
52441;BME280;39611;46.062;8.950;2023-03-21T05:01:28;96575.38;;;8.36;86.64
52441;BME280;39611;46.062;8.950;2023-03-21T05:04:00;96581.41;;;8.31;86.67
52441;BME280;39611;46.062;8.950;2023-03-21T05:06:28;96569.59;;;8.39;86.36
52441;BME280;39611;46.062;8.950;2023-03-21T05:08:56;96582.69;;;8.29;86.67
52441;BME280;39611;46.062;8.950;2023-03-21T05:11:27;96575.84;;;8.28;86.92
52441;BME280;39611;46.062;8.950;2023-03-21T05:13:57;96565.25;;;8.18;87.05
52441;BME280;39611;46.062;8.950;2023-03-21T05:16:24;96571.63;;;8.32;86.27
52441;BME280;39611;46.062;8.950;2023-03-21T05:18:52;96567.88;;;8.18;86.97
52441;BME280;39611;46.062;8.950;2023-03-21T05:21:21;96572.97;;;8.35;85.88
52441;BME280;39611;46.062;8.950;2023-03-21T05:23:47;96569.25;;;8.25;86.34
52441;BME280;39611;46.062;8.950;2023-03-21T05:26:20;96568.38;;;8.09;87.25
52441;BME280;39611;46.062;8.950;2023-03-21T05:28:47;96578.06;;;8.04;87.94
52441;BME280;39611;46.062;8.950;2023-03-21T05:31:15;96574.22;;;8.22;86.91
52441;BME280;39611;46.062;8.950;2023-03-21T05:33:43;96576.31;;;8.15;87.23
52441;BME280;39611;46.062;8.950;2023-03-21T05:36:10;96573.88;;;8.08;87.74
52441;BME280;39611;46.062;8.950;2023-03-21T05:38:38;96578.25;;;7.92;88.57
52441;BME280;39611;46.062;8.950;2023-03-21T05:41:08;96587.53;;;8.00;87.80
52441;BME280;39611;46.062;8.950;2023-03-21T05:43:34;96586.03;;;8.14;87.49
52441;BME280;39611;46.062;8.950;2023-03-21T05:46:01;96589.97;;;8.12;88.16
52441;BME280;39611;46.062;8.950;2023-03-21T05:48:27;96589.72;;;8.13;87.18
52441;BME280;39611;46.062;8.950;2023-03-21T05:50:54;96596.16;;;8.32;86.93
52441;BME280;39611;46.062;8.950;2023-03-21T05:53:21;96597.31;;;8.47;86.31
52441;BME280;39611;46.062;8.950;2023-03-21T05:55:48;96595.78;;;8.51;85.50
52441;BME280;39611;46.062;8.950;2023-03-21T05:58:15;96605.00;;;8.53;85.46
52441;BME280;39611;46.062;8.950;2023-03-21T06:00:41;96601.03;;;8.46;86.47
52441;BME280;39611;46.062;8.950;2023-03-21T06:03:07;96603.53;;;8.78;84.93
52441;BME280;39611;46.062;8.950;2023-03-21T06:05:34;96606.94;;;8.73;84.34
52441;BME280;39611;46.062;8.950;2023-03-21T06:08:01;96600.41;;;8.39;85.57
52441;BME280;39611;46.062;8.950;2023-03-21T06:10:27;96600.19;;;8.45;85.50
52441;BME280;39611;46.062;8.950;2023-03-21T06:12:54;96595.81;;;8.56;86.05
52441;BME280;39611;46.062;8.950;2023-03-21T06:15:20;96602.84;;;8.45;86.44
52441;BME280;39611;46.062;8.950;2023-03-21T06:17:47;96602.84;;;8.45;86.15
52441;BME280;39611;46.062;8.950;2023-03-21T06:20:13;96601.84;;;8.51;85.90
52441;BME280;39611;46.062;8.950;2023-03-21T06:22:40;96592.88;;;8.58;85.23
52441;BME280;39611;46.062;8.950;2023-03-21T06:25:07;96591.38;;;8.72;84.37
52441;BME280;39611;46.062;8.950;2023-03-21T06:27:34;96596.13;;;8.70;86.24
52441;BME280;39611;46.062;8.950;2023-03-21T06:30:03;96596.59;;;8.57;86.78
52441;BME280;39611;46.062;8.950;2023-03-21T06:32:29;96593.38;;;8.49;87.71
52441;BME280;39611;46.062;8.950;2023-03-21T06:34:56;96603.38;;;8.47;87.55
52441;BME280;39611;46.062;8.950;2023-03-21T06:37:23;96596.81;;;8.50;86.88
52441;BME280;39611;46.062;8.950;2023-03-21T06:39:49;96594.50;;;8.64;86.23
52441;BME280;39611;46.062;8.950;2023-03-21T06:42:16;96589.28;;;8.79;85.06
52441;BME280;39611;46.062;8.950;2023-03-21T06:44:42;96587.75;;;8.93;84.81
52441;BME280;39611;46.062;8.950;2023-03-21T06:47:09;96592.53;;;9.02;84.46
52441;BME280;39611;46.062;8.950;2023-03-21T06:49:35;96598.06;;;9.00;84.80
52441;BME280;39611;46.062;8.950;2023-03-21T06:52:02;96592.50;;;8.91;86.07
52441;BME280;39611;46.062;8.950;2023-03-21T06:54:28;96592.00;;;9.05;84.64
52441;BME280;39611;46.062;8.950;2023-03-21T06:56:55;96588.09;;;9.17;83.83
52441;BME280;39611;46.062;8.950;2023-03-21T06:59:21;96583.59;;;9.23;84.07
52441;BME280;39611;46.062;8.950;2023-03-21T07:01:48;96586.81;;;9.40;83.73
52441;BME280;39611;46.062;8.950;2023-03-21T07:04:14;96587.88;;;9.80;81.60
52441;BME280;39611;46.062;8.950;2023-03-21T07:06:41;96598.44;;;10.32;79.63
52441;BME280;39611;46.062;8.950;2023-03-21T07:09:07;96590.00;;;10.94;76.84
52441;BME280;39611;46.062;8.950;2023-03-21T07:11:35;96586.13;;;11.31;74.90
52441;BME280;39611;46.062;8.950;2023-03-21T07:14:03;96587.94;;;11.75;72.58
52441;BME280;39611;46.062;8.950;2023-03-21T07:16:29;96592.81;;;12.27;69.50
52441;BME280;39611;46.062;8.950;2023-03-21T07:18:56;96594.88;;;12.59;68.40
52441;BME280;39611;46.062;8.950;2023-03-21T07:21:22;96593.41;;;12.72;67.46
52441;BME280;39611;46.062;8.950;2023-03-21T07:23:49;96587.41;;;12.85;66.16
52441;BME280;39611;46.062;8.950;2023-03-21T07:26:16;96581.75;;;12.92;66.18
52441;BME280;39611;46.062;8.950;2023-03-21T07:28:44;96590.72;;;12.77;64.59
52441;BME280;39611;46.062;8.950;2023-03-21T07:31:12;96574.66;;;12.87;65.13
52441;BME280;39611;46.062;8.950;2023-03-21T07:33:39;96580.25;;;12.85;65.32
52441;BME280;39611;46.062;8.950;2023-03-21T07:36:10;96578.97;;;12.59;65.67
52441;BME280;39611;46.062;8.950;2023-03-21T07:38:38;96575.91;;;12.46;66.39
52441;BME280;39611;46.062;8.950;2023-03-21T07:41:06;96578.34;;;12.14;65.65
52441;BME280;39611;46.062;8.950;2023-03-21T07:43:33;96585.09;;;12.01;65.75
52441;BME280;39611;46.062;8.950;2023-03-21T07:46:02;96577.78;;;11.88;67.23
52441;BME280;39611;46.062;8.950;2023-03-21T07:48:29;96581.88;;;11.70;68.11
52441;BME280;39611;46.062;8.950;2023-03-21T07:50:56;96584.06;;;11.63;69.90
52441;BME280;39611;46.062;8.950;2023-03-21T07:53:22;96580.34;;;11.64;70.08
52441;BME280;39611;46.062;8.950;2023-03-21T07:55:53;96587.78;;;11.62;70.09
52441;BME280;39611;46.062;8.950;2023-03-21T07:58:23;96586.19;;;11.61;71.11
52441;BME280;39611;46.062;8.950;2023-03-21T08:00:51;96590.00;;;11.49;69.93
52441;BME280;39611;46.062;8.950;2023-03-21T08:03:18;96587.09;;;11.46;69.87
52441;BME280;39611;46.062;8.950;2023-03-21T08:05:45;96581.53;;;11.47;71.57
52441;BME280;39611;46.062;8.950;2023-03-21T08:08:12;96588.41;;;11.48;70.77
52441;BME280;39611;46.062;8.950;2023-03-21T08:10:38;96589.44;;;11.52;70.82
52441;BME280;39611;46.062;8.950;2023-03-21T08:13:07;96591.34;;;11.47;72.20
52441;BME280;39611;46.062;8.950;2023-03-21T08:15:33;96593.09;;;11.56;72.89
52441;BME280;39611;46.062;8.950;2023-03-21T08:17:59;96599.22;;;11.57;74.75
52441;BME280;39611;46.062;8.950;2023-03-21T08:20:26;96592.50;;;11.65;74.71
52441;BME280;39611;46.062;8.950;2023-03-21T08:22:52;96595.69;;;11.67;73.62
52441;BME280;39611;46.062;8.950;2023-03-21T08:25:20;96587.50;;;11.63;74.09
52441;BME280;39611;46.062;8.950;2023-03-21T08:27:48;96589.81;;;11.70;74.01
52441;BME280;39611;46.062;8.950;2023-03-21T08:30:21;96593.50;;;11.74;71.24
52441;BME280;39611;46.062;8.950;2023-03-21T08:32:48;96586.16;;;11.66;71.47
52441;BME280;39611;46.062;8.950;2023-03-21T08:35:16;96586.91;;;11.71;72.03
52441;BME280;39611;46.062;8.950;2023-03-21T08:37:44;96587.09;;;11.80;71.68
52441;BME280;39611;46.062;8.950;2023-03-21T08:40:13;96589.78;;;11.75;72.09
52441;BME280;39611;46.062;8.950;2023-03-21T08:42:41;96587.06;;;11.85;72.19
52441;BME280;39611;46.062;8.950;2023-03-21T08:45:09;96595.28;;;11.89;73.32
52441;BME280;39611;46.062;8.950;2023-03-21T08:47:36;96575.63;;;11.95;73.30
52441;BME280;39611;46.062;8.950;2023-03-21T08:50:04;96585.38;;;11.99;73.01
52441;BME280;39611;46.062;8.950;2023-03-21T08:52:32;96586.59;;;12.12;72.27
52441;BME280;39611;46.062;8.950;2023-03-21T08:54:58;96584.13;;;12.21;72.29
52441;BME280;39611;46.062;8.950;2023-03-21T08:57:25;96587.06;;;12.19;71.70
52441;BME280;39611;46.062;8.950;2023-03-21T08:59:51;96580.41;;;12.22;72.08
52441;BME280;39611;46.062;8.950;2023-03-21T09:02:18;96580.84;;;12.29;73.21
52441;BME280;39611;46.062;8.950;2023-03-21T09:04:44;96583.69;;;12.38;73.90
52441;BME280;39611;46.062;8.950;2023-03-21T09:07:11;96582.00;;;12.47;74.78
52441;BME280;39611;46.062;8.950;2023-03-21T09:09:42;96578.50;;;12.52;74.25
52441;BME280;39611;46.062;8.950;2023-03-21T09:12:11;96583.50;;;12.58;73.29
52441;BME280;39611;46.062;8.950;2023-03-21T09:14:37;96577.38;;;12.58;72.72
52441;BME280;39611;46.062;8.950;2023-03-21T09:17:04;96581.25;;;12.65;72.50
52441;BME280;39611;46.062;8.950;2023-03-21T09:19:30;96570.31;;;12.72;73.14
52441;BME280;39611;46.062;8.950;2023-03-21T09:21:57;96568.19;;;12.74;73.20
52441;BME280;39611;46.062;8.950;2023-03-21T09:24:23;96565.72;;;12.78;72.73
52441;BME280;39611;46.062;8.950;2023-03-21T09:26:51;96571.75;;;12.83;70.93
52441;BME280;39611;46.062;8.950;2023-03-21T09:29:18;96557.44;;;12.84;70.72
52441;BME280;39611;46.062;8.950;2023-03-21T09:31:46;96563.66;;;12.94;69.11
52441;BME280;39611;46.062;8.950;2023-03-21T09:34:13;96563.34;;;13.00;67.20
52441;BME280;39611;46.062;8.950;2023-03-21T09:36:41;96562.81;;;12.98;68.11
52441;BME280;39611;46.062;8.950;2023-03-21T09:39:10;96555.66;;;12.99;67.27
52441;BME280;39611;46.062;8.950;2023-03-21T09:47:20;96561.13;;;13.07;66.66
52441;BME280;39611;46.062;8.950;2023-03-21T09:49:57;96560.81;;;13.09;66.05
52441;BME280;39611;46.062;8.950;2023-03-21T09:52:48;96564.63;;;13.22;67.20
52441;BME280;39611;46.062;8.950;2023-03-21T09:55:19;96558.94;;;13.33;65.43
52441;BME280;39611;46.062;8.950;2023-03-21T09:57:51;96552.97;;;13.42;61.00
52441;BME280;39611;46.062;8.950;2023-03-21T10:00:28;96553.66;;;13.47;64.08
52441;BME280;39611;46.062;8.950;2023-03-21T10:02:59;96562.06;;;13.54;63.27
52441;BME280;39611;46.062;8.950;2023-03-21T10:05:30;96564.41;;;13.56;64.34
52441;BME280;39611;46.062;8.950;2023-03-21T10:08:17;96561.09;;;13.64;65.13
52441;BME280;39611;46.062;8.950;2023-03-21T10:10:58;96558.34;;;13.69;65.40
52441;BME280;39611;46.062;8.950;2023-03-21T10:13:34;96551.91;;;13.75;62.23
52441;BME280;39611;46.062;8.950;2023-03-21T10:16:42;96563.19;;;14.00;61.43
52441;BME280;39611;46.062;8.950;2023-03-21T10:19:11;96559.47;;;14.01;59.28
52441;BME280;39611;46.062;8.950;2023-03-21T10:21:41;96554.41;;;13.99;60.12
52441;BME280;39611;46.062;8.950;2023-03-21T10:24:32;96559.38;;;14.06;60.98
52441;BME280;39611;46.062;8.950;2023-03-21T10:26:59;96560.47;;;14.19;58.87
52441;BME280;39611;46.062;8.950;2023-03-21T10:29:39;96561.44;;;14.23;60.02
52441;BME280;39611;46.062;8.950;2023-03-21T10:32:10;96560.06;;;14.26;56.66
52441;BME280;39611;46.062;8.950;2023-03-21T10:34:45;96561.56;;;14.32;56.12
52441;BME280;39611;46.062;8.950;2023-03-21T10:37:13;96562.06;;;14.34;56.89
52441;BME280;39611;46.062;8.950;2023-03-21T10:39:47;96563.94;;;14.47;59.57
52441;BME280;39611;46.062;8.950;2023-03-21T10:42:18;96560.28;;;14.43;59.82
52441;BME280;39611;46.062;8.950;2023-03-21T10:44:48;96560.06;;;14.39;57.21
52441;BME280;39611;46.062;8.950;2023-03-21T10:47:26;96556.25;;;14.46;56.88
52441;BME280;39611;46.062;8.950;2023-03-21T10:49:53;96551.06;;;14.54;56.39
52441;BME280;39611;46.062;8.950;2023-03-21T10:52:49;96552.84;;;14.59;57.33
52441;BME280;39611;46.062;8.950;2023-03-21T10:55:26;96553.34;;;14.61;57.35
52441;BME280;39611;46.062;8.950;2023-03-21T10:57:58;96551.34;;;14.67;56.42
52441;BME280;39611;46.062;8.950;2023-03-21T11:00:29;96550.25;;;14.68;56.91
52441;BME280;39611;46.062;8.950;2023-03-21T11:02:59;96543.16;;;14.77;58.63
52441;BME280;39611;46.062;8.950;2023-03-21T11:05:33;96546.22;;;14.84;58.48
52441;BME280;39611;46.062;8.950;2023-03-21T11:08:09;96548.38;;;14.82;62.44
52441;BME280;39611;46.062;8.950;2023-03-21T11:10:53;96545.41;;;14.83;59.16
52441;BME280;39611;46.062;8.950;2023-03-21T11:16:09;96541.63;;;14.98;56.18
52441;BME280;39611;46.062;8.950;2023-03-21T11:18:43;96540.84;;;14.98;55.63
52441;BME280;39611;46.062;8.950;2023-03-21T11:21:12;96535.59;;;15.06;55.19
52441;BME280;39611;46.062;8.950;2023-03-21T11:23:42;96536.19;;;15.03;55.04
52441;BME280;39611;46.062;8.950;2023-03-21T11:26:20;96529.38;;;15.11;55.86
52441;BME280;39611;46.062;8.950;2023-03-21T11:28:51;96534.81;;;15.06;52.90
52441;BME280;39611;46.062;8.950;2023-03-21T11:31:18;96528.28;;;15.12;55.16
52441;BME280;39611;46.062;8.950;2023-03-21T11:33:55;96535.00;;;15.10;54.01
52441;BME280;39611;46.062;8.950;2023-03-21T11:36:30;96529.31;;;15.02;53.12
52441;BME280;39611;46.062;8.950;2023-03-21T11:39:12;96522.00;;;15.08;53.34
52441;BME280;39611;46.062;8.950;2023-03-21T11:41:41;96518.22;;;15.23;53.30
52441;BME280;39611;46.062;8.950;2023-03-21T11:44:27;96514.50;;;15.10;52.70
52441;BME280;39611;46.062;8.950;2023-03-21T11:46:54;96505.50;;;15.06;52.39
52441;BME280;39611;46.062;8.950;2023-03-21T11:49:22;96506.56;;;15.19;52.21
52441;BME280;39611;46.062;8.950;2023-03-21T11:51:58;96497.84;;;15.27;50.92
52441;BME280;39611;46.062;8.950;2023-03-21T11:57:33;96488.09;;;15.45;53.41
52441;BME280;39611;46.062;8.950;2023-03-21T12:00:17;96486.22;;;15.45;52.64
52441;BME280;39611;46.062;8.950;2023-03-21T12:05:34;96474.28;;;15.43;52.81
52441;BME280;39611;46.062;8.950;2023-03-21T12:11:21;96473.50;;;15.42;52.09
52441;BME280;39611;46.062;8.950;2023-03-21T12:22:45;96460.81;;;15.48;54.62
52441;BME280;39611;46.062;8.950;2023-03-21T12:25:32;96458.22;;;15.57;54.76
52441;BME280;39611;46.062;8.950;2023-03-21T12:36:46;96436.53;;;15.72;53.29
52441;BME280;39611;46.062;8.950;2023-03-21T12:39:50;96440.72;;;15.64;55.39
52441;BME280;39611;46.062;8.950;2023-03-21T12:44:40;96432.66;;;15.78;53.86
52441;BME280;39611;46.062;8.950;2023-03-21T12:47:12;96430.59;;;15.75;53.53
52441;BME280;39611;46.062;8.950;2023-03-21T12:49:46;96424.94;;;15.77;54.43
52441;BME280;39611;46.062;8.950;2023-03-21T12:52:24;96424.84;;;15.90;53.60
52441;BME280;39611;46.062;8.950;2023-03-21T12:54:57;96422.91;;;15.82;54.98
52441;BME280;39611;46.062;8.950;2023-03-21T12:57:35;96418.19;;;15.79;53.16
52441;BME280;39611;46.062;8.950;2023-03-21T13:00:22;96409.63;;;15.91;52.30
52441;BME280;39611;46.062;8.950;2023-03-21T13:03:13;96408.22;;;15.93;53.37
52441;BME280;39611;46.062;8.950;2023-03-21T13:05:56;96398.97;;;16.00;52.80
52441;BME280;39611;46.062;8.950;2023-03-21T13:08:28;96390.97;;;16.00;53.79
52441;BME280;39611;46.062;8.950;2023-03-21T13:10:56;96388.59;;;15.89;53.75
52441;BME280;39611;46.062;8.950;2023-03-21T13:13:41;96380.94;;;15.97;52.30
52441;BME280;39611;46.062;8.950;2023-03-21T13:16:15;96388.44;;;15.94;51.96
52441;BME280;39611;46.062;8.950;2023-03-21T13:24:38;96377.28;;;15.92;51.05
52441;BME280;39611;46.062;8.950;2023-03-21T13:27:30;96380.16;;;15.96;51.84
52441;BME280;39611;46.062;8.950;2023-03-21T13:30:35;96380.16;;;15.96;50.85
52441;BME280;39611;46.062;8.950;2023-03-21T13:33:06;96370.13;;;16.10;49.84
52441;BME280;39611;46.062;8.950;2023-03-21T13:35:38;96365.28;;;16.04;51.73
52441;BME280;39611;46.062;8.950;2023-03-21T13:38:19;96365.09;;;16.00;50.43
52441;BME280;39611;46.062;8.950;2023-03-21T13:40:57;96363.38;;;16.13;50.28
52441;BME280;39611;46.062;8.950;2023-03-21T13:59:36;96344.59;;;16.27;49.54
52441;BME280;39611;46.062;8.950;2023-03-21T14:04:58;96344.25;;;16.28;49.43
52441;BME280;39611;46.062;8.950;2023-03-21T14:07:54;96335.00;;;16.26;50.50
52441;BME280;39611;46.062;8.950;2023-03-21T14:10:38;96335.16;;;16.12;52.15
52441;BME280;39611;46.062;8.950;2023-03-21T14:13:08;96341.25;;;16.21;50.88
52441;BME280;39611;46.062;8.950;2023-03-21T14:15:43;96342.84;;;16.22;50.93
52441;BME280;39611;46.062;8.950;2023-03-21T14:18:23;96338.59;;;16.21;51.33
52441;BME280;39611;46.062;8.950;2023-03-21T14:21:36;96339.06;;;16.23;50.08
52441;BME280;39611;46.062;8.950;2023-03-21T14:24:13;96331.06;;;16.23;48.92
52441;BME280;39611;46.062;8.950;2023-03-21T14:26:42;96341.25;;;16.21;49.80
52441;BME280;39611;46.062;8.950;2023-03-21T14:29:19;96328.56;;;16.18;51.99
52441;BME280;39611;46.062;8.950;2023-03-21T14:31:54;96328.41;;;16.14;51.31
52441;BME280;39611;46.062;8.950;2023-03-21T14:34:22;96324.66;;;16.24;51.44
52441;BME280;39611;46.062;8.950;2023-03-21T14:36:49;96316.78;;;16.19;51.87
52441;BME280;39611;46.062;8.950;2023-03-21T14:39:29;96318.66;;;16.19;51.85
52441;BME280;39611;46.062;8.950;2023-03-21T14:42:02;96316.31;;;16.17;51.87
52441;BME280;39611;46.062;8.950;2023-03-21T14:44:37;96305.66;;;16.17;52.00
52441;BME280;39611;46.062;8.950;2023-03-21T14:47:25;96303.44;;;16.19;51.41
52441;BME280;39611;46.062;8.950;2023-03-21T14:49:53;96302.66;;;16.19;50.33
52441;BME280;39611;46.062;8.950;2023-03-21T14:54:50;96299.53;;;16.16;51.02
52441;BME280;39611;46.062;8.950;2023-03-21T14:57:21;96297.63;;;16.17;50.54